Time;durP1;ratioP1;P1;durP2;ratioP2;P2;SDS_P1;SDS_P2;PMS_P1;PMS_P2;Temp;Humidity;BMP_temperature;BMP_pressure;BME280_temperature;BME280_humidity;BME280_pressure;Samples;Min_cycle;Max_cycle;Signal;HPM_P1;HPM_P2
2021/10/20 00:02:26;;;;;;;89.20;69.10;;;;;;;7.88;92.04;99344.21;112946;1181;61091;-78
2021/10/20 00:04:54;;;;;;;87.00;69.90;;;;;;;7.93;91.98;99344.48;112961;1189;60124;-81
2021/10/20 00:07:21;;;;;;;87.50;66.60;;;;;;;7.98;91.94;99341.91;112999;1190;60227;-78
2021/10/20 00:09:47;;;;;;;89.70;68.90;;;;;;;8.00;91.90;99334.25;112904;1190;60303;-78
2021/10/20 00:12:14;;;;;;;87.20;66.20;;;;;;;7.98;91.86;99325.13;112984;1190;60264;-78
2021/10/20 00:14:41;;;;;;;79.60;63.30;;;;;;;7.98;91.86;99314.35;112992;1190;60153;-79
2021/10/20 00:17:07;;;;;;;76.20;59.30;;;;;;;7.95;91.95;99311.82;113002;1190;63678;-78
2021/10/20 00:19:34;;;;;;;78.50;57.70;;;;;;;7.93;91.98;99308.77;112958;1189;60284;-78
2021/10/20 00:22:00;;;;;;;78.90;58.60;;;;;;;7.92;91.96;99308.44;112964;1190;60233;-78
2021/10/20 00:24:27;;;;;;;73.90;55.70;;;;;;;7.93;91.96;99305.96;112882;1190;65105;-81
2021/10/20 00:26:53;;;;;;;84.10;60.40;;;;;;;7.98;92.24;99309.73;112959;1190;60242;-78
2021/10/20 00:29:20;;;;;;;83.30;64.90;;;;;;;8.03;92.22;99316.21;112970;1190;60875;-79
2021/10/20 00:31:46;;;;;;;83.90;67.20;;;;;;;8.00;92.21;99319.91;112961;1189;60236;-79
2021/10/20 00:34:13;;;;;;;86.10;68.30;;;;;;;7.99;92.33;99314.09;112966;1190;60134;-79
2021/10/20 00:36:39;;;;;;;80.70;63.50;;;;;;;8.01;92.50;99316.83;112705;1190;60137;-79
2021/10/20 00:39:06;;;;;;;77.70;62.80;;;;;;;8.06;92.65;99319.23;112913;1189;60232;-79
2021/10/20 00:41:32;;;;;;;82.60;60.50;;;;;;;8.10;92.76;99318.30;112922;1189;60251;-79
2021/10/20 00:43:59;;;;;;;67.40;53.70;;;;;;;8.15;92.79;99313.80;112902;1190;60275;-80
2021/10/20 00:46:28;;;;;;;69.90;53.00;;;;;;;8.20;92.79;99301.17;112974;1189;59062;-78
2021/10/20 00:48:55;;;;;;;72.10;53.90;;;;;;;8.25;92.67;99294.19;112947;1189;65199;-79
2021/10/20 00:51:25;;;;;;;80.10;55.30;;;;;;;8.27;92.71;99287.85;113030;1181;60137;-79
2021/10/20 00:53:59;;;;;;;71.10;52.50;;;;;;;8.29;92.77;99289.73;112976;1189;62685;-79
2021/10/20 00:56:27;;;;;;;66.30;50.40;;;;;;;8.30;92.66;99292.34;112987;1189;60255;-79
2021/10/20 00:58:54;;;;;;;71.70;52.60;;;;;;;8.31;92.73;99283.02;113031;1189;60095;-78
2021/10/20 01:01:21;;;;;;;74.90;54.60;;;;;;;8.32;92.70;99283.90;113011;1189;64424;-78
2021/10/20 01:03:47;;;;;;;65.40;51.20;;;;;;;8.32;92.68;99281.55;113001;1190;60193;-80
2021/10/20 01:06:14;;;;;;;66.90;52.00;;;;;;;8.35;92.69;99278.23;112861;1190;64000;-79
2021/10/20 01:08:41;;;;;;;58.20;44.00;;;;;;;8.38;92.77;99272.42;112927;1189;60220;-79
2021/10/20 01:11:07;;;;;;;50.60;39.20;;;;;;;8.42;92.78;99266.95;112998;1189;60329;-79
2021/10/20 01:13:35;;;;;;;35.90;26.60;;;;;;;8.45;92.87;99262.33;112966;1189;65126;-79
2021/10/20 01:16:02;;;;;;;26.40;20.20;;;;;;;8.57;93.12;99263.48;112968;1189;60241;-79
2021/10/20 01:18:28;;;;;;;12.80;9.60;;;;;;;8.73;93.00;99258.50;112835;1190;65018;-81
2021/10/20 01:21:00;;;;;;;8.40;5.60;;;;;;;8.98;93.08;99252.34;113100;1181;60165;-80
2021/10/20 01:23:28;;;;;;;7.90;4.80;;;;;;;9.25;92.86;99248.16;113023;1189;60242;-79
2021/10/20 01:25:56;;;;;;;5.30;4.60;;;;;;;9.50;92.53;99245.49;113057;1190;65048;-81
2021/10/20 01:28:23;;;;;;;10.30;4.20;;;;;;;9.76;92.17;99245.14;113091;1189;60784;-80
2021/10/20 01:30:50;;;;;;;6.40;5.00;;;;;;;10.01;91.35;99239.08;113109;1189;62757;-80
2021/10/20 01:33:16;;;;;;;5.20;4.50;;;;;;;10.22;90.81;99234.23;113013;1190;60219;-78
2021/10/20 01:35:43;;;;;;;5.10;4.60;;;;;;;10.37;90.34;99236.55;112873;1188;60155;-78
2021/10/20 01:38:09;;;;;;;5.70;4.00;;;;;;;10.48;89.97;99239.56;112908;1190;60258;-79
2021/10/20 01:40:36;;;;;;;5.00;4.30;;;;;;;10.59;89.54;99238.53;112956;1189;60684;-79
2021/10/20 01:43:02;;;;;;;7.60;3.90;;;;;;;10.68;89.07;99235.30;112982;1190;63664;-78
2021/10/20 01:45:29;;;;;;;5.50;3.90;;;;;;;10.74;88.77;99232.92;112725;1190;60310;-78
2021/10/20 01:47:56;;;;;;;6.70;4.30;;;;;;;10.80;88.54;99233.81;112971;1190;60207;-78
2021/10/20 01:50:23;;;;;;;4.90;4.40;;;;;;;10.84;88.11;99230.15;112854;1190;65966;-79
2021/10/20 01:52:50;;;;;;;6.10;4.40;;;;;;;10.91;87.90;99225.99;112871;1190;60332;-79
2021/10/20 01:55:17;;;;;;;5.50;4.10;;;;;;;10.97;87.58;99224.19;112936;1189;62695;-78
2021/10/20 01:57:44;;;;;;;5.90;4.30;;;;;;;11.02;87.34;99227.95;112671;1190;60332;-79
2021/10/20 02:00:33;;;;;;;5.30;4.50;;;;;;;11.07;87.12;99228.71;112956;1190;60690;-80
2021/10/20 02:02:59;;;;;;;6.60;4.50;;;;;;;11.10;86.93;99229.73;113126;1190;65944;-79
2021/10/20 02:05:26;;;;;;;5.30;4.10;;;;;;;11.12;86.68;99222.84;112967;1189;60184;-78
2021/10/20 02:07:52;;;;;;;7.70;4.80;;;;;;;11.14;86.60;99214.91;112925;1190;60136;-79
2021/10/20 02:10:19;;;;;;;5.90;4.90;;;;;;;11.15;86.31;99209.15;112983;1181;60249;-78
2021/10/20 02:12:46;;;;;;;7.10;5.30;;;;;;;11.16;86.22;99206.41;112923;1190;60213;-80
2021/10/20 02:15:13;;;;;;;6.90;5.60;;;;;;;11.15;86.16;99202.39;112979;1190;65622;-81
2021/10/20 02:17:39;;;;;;;9.60;5.40;;;;;;;11.15;86.02;99205.20;113070;1189;60217;-80
2021/10/20 02:20:10;;;;;;;6.80;5.90;;;;;;;11.16;85.91;99206.24;113002;1189;62448;-80
2021/10/20 02:22:36;;;;;;;;;;;;;;;11.15;85.81;99204.67;113028;1189;60181;-79
2021/10/20 02:25:05;;;;;;;7.20;5.60;;;;;;;11.14;85.81;99201.88;113016;1189;60262;-79
2021/10/20 02:27:32;;;;;;;5.70;5.10;;;;;;;11.13;85.65;99200.70;112989;1189;63664;-79
2021/10/20 02:29:58;;;;;;;5.80;5.10;;;;;;;11.11;85.59;99197.81;112994;1189;60214;-78
2021/10/20 02:32:25;;;;;;;6.10;4.90;;;;;;;11.10;85.51;99197.00;112918;1190;63905;-79
2021/10/20 02:34:52;;;;;;;5.70;4.90;;;;;;;11.10;85.51;99193.12;112917;1189;60261;-79
2021/10/20 02:37:18;;;;;;;6.40;4.30;;;;;;;11.08;85.44;99198.36;112975;1180;60139;-79
2021/10/20 02:39:45;;;;;;;6.40;4.80;;;;;;;11.07;85.40;99194.21;112868;1189;63539;-79
2021/10/20 02:42:11;;;;;;;6.80;5.10;;;;;;;11.05;85.33;99191.13;113052;1190;60195;-79
2021/10/20 02:44:38;;;;;;;6.70;5.60;;;;;;;11.02;85.29;99189.19;113009;1189;65030;-79
2021/10/20 02:47:05;;;;;;;8.60;7.10;;;;;;;10.97;85.35;99183.83;112737;1190;60210;-79
2021/10/20 02:49:31;;;;;;;8.40;6.10;;;;;;;10.91;85.39;99180.67;112973;1190;60210;-80
2021/10/20 02:51:58;;;;;;;8.90;6.30;;;;;;;10.85;85.33;99181.59;112819;1189;65147;-78
2021/10/20 02:54:24;;;;;;;8.70;7.80;;;;;;;10.81;85.36;99187.70;112980;1188;60232;-79
2021/10/20 02:56:51;;;;;;;7.50;6.20;;;;;;;10.78;85.45;99192.03;112978;1189;62485;-78
2021/10/20 02:59:17;;;;;;;6.30;5.70;;;;;;;10.75;85.45;99193.57;113016;1189;60120;-79
2021/10/20 03:01:44;;;;;;;8.10;6.30;;;;;;;10.74;85.45;99193.46;112922;1190;60121;-80
2021/10/20 03:04:10;;;;;;;9.50;7.50;;;;;;;10.73;85.54;99195.66;113022;1189;60671;-78
2021/10/20 03:06:37;;;;;;;11.10;7.40;;;;;;;10.70;85.56;99200.86;112949;1190;60210;-79
2021/10/20 03:09:04;;;;;;;9.10;6.90;;;;;;;10.67;85.53;99202.48;112874;1190;60290;-80
2021/10/20 03:11:30;;;;;;;8.70;6.70;;;;;;;10.62;85.49;99204.73;112953;1189;60210;-80
2021/10/20 03:13:58;;;;;;;8.60;6.00;;;;;;;10.57;85.50;99203.45;113101;1189;60173;-78
2021/10/20 03:16:25;;;;;;;8.10;6.20;;;;;;;10.53;85.50;99201.59;112965;1189;65017;-80
2021/10/20 03:18:52;;;;;;;9.60;6.40;;;;;;;10.50;85.62;99192.21;113029;1189;60238;-80
2021/10/20 03:21:19;;;;;;;8.40;5.40;;;;;;;10.46;85.68;99189.58;112992;1189;63863;-79
2021/10/20 03:23:46;;;;;;;8.70;7.00;;;;;;;10.43;85.89;99181.06;112888;1190;60233;-78
2021/10/20 03:26:13;;;;;;;7.40;6.30;;;;;;;10.40;85.96;99178.45;112885;1190;60181;-79
2021/10/20 03:28:39;;;;;;;8.40;6.60;;;;;;;10.37;85.96;99179.20;112924;1190;63670;-79
2021/10/20 03:31:06;;;;;;;8.40;7.00;;;;;;;10.35;86.12;99177.85;112980;1181;60238;-78
2021/10/20 03:33:32;;;;;;;8.20;6.30;;;;;;;10.35;86.19;99177.66;112937;1190;63818;-79
2021/10/20 03:35:59;;;;;;;8.60;7.70;;;;;;;10.38;86.31;99177.11;112929;1189;60185;-79
2021/10/20 03:38:25;;;;;;;8.60;7.80;;;;;;;10.42;86.39;99181.13;112984;1189;60130;-79
2021/10/20 03:40:53;;;;;;;11.10;8.40;;;;;;;10.48;86.46;99183.95;112842;1190;66232;-79
2021/10/20 03:43:20;;;;;;;10.80;9.20;;;;;;;10.53;86.37;99184.02;112871;1190;60223;-78
2021/10/20 03:45:47;;;;;;;10.80;7.80;;;;;;;10.56;86.41;99185.96;112915;1189;63853;-78
2021/10/20 03:48:13;;;;;;;9.60;7.50;;;;;;;10.59;86.31;99185.26;112943;1189;60214;-78
2021/10/20 03:50:41;;;;;;;7.30;6.60;;;;;;;10.61;86.39;99183.88;112954;1189;60268;-78
2021/10/20 03:53:08;;;;;;;9.20;6.90;;;;;;;10.64;86.51;99175.81;112961;1190;65863;-79
2021/10/20 03:55:34;;;;;;;7.60;6.80;;;;;;;10.69;86.67;99170.52;112954;1189;60230;-78
2021/10/20 03:58:01;;;;;;;7.90;6.10;;;;;;;10.74;86.78;99164.01;112858;1190;63411;-79
2021/10/20 04:00:28;;;;;;;13.10;8.60;;;;;;;10.80;86.78;99153.14;112939;1189;60226;-78
2021/10/20 04:02:54;;;;;;;14.50;9.80;;;;;;;10.85;86.92;99147.09;112971;1189;60211;-79
2021/10/20 04:05:21;;;;;;;18.30;11.10;;;;;;;10.88;86.96;99139.29;112955;1188;63603;-79
2021/10/20 04:07:50;;;;;;;16.50;10.00;;;;;;;10.88;86.99;99134.87;113004;1181;60520;-79
2021/10/20 04:10:19;;;;;;;17.50;9.60;;;;;;;10.86;87.13;99135.15;112918;1188;64627;-79
2021/10/20 04:12:46;;;;;;;10.20;7.90;;;;;;;10.85;87.31;99140.91;112851;1190;60166;-79
2021/10/20 04:15:15;;;;;;;12.20;7.40;;;;;;;10.86;87.50;99145.98;113000;1189;60204;-80
2021/10/20 04:17:42;;;;;;;11.00;7.20;;;;;;;10.88;87.52;99149.56;112993;1190;66069;-80
2021/10/20 04:20:11;;;;;;;10.20;6.40;;;;;;;10.91;87.62;99144.19;112883;1190;60130;-80
2021/10/20 04:22:39;;;;;;;8.90;6.00;;;;;;;10.96;87.75;99140.33;112953;1190;63695;-80
2021/10/20 04:25:07;;;;;;;8.30;6.00;;;;;;;11.00;87.88;99137.55;113107;1190;60658;-80
2021/10/20 04:27:34;;;;;;;10.30;6.70;;;;;;;11.05;87.87;99135.14;113111;1189;60120;-79
2021/10/20 04:30:03;;;;;;;12.70;7.30;;;;;;;11.10;88.06;99135.33;113035;1190;64095;-80
2021/10/20 04:32:29;;;;;;;9.30;7.30;;;;;;;11.14;88.15;99138.79;112960;1189;60200;-80
2021/10/20 04:34:56;;;;;;;7.30;6.30;;;;;;;11.17;88.25;99134.80;112937;1189;64075;-80
2021/10/20 04:37:25;;;;;;;6.30;5.50;;;;;;;11.21;88.26;99130.98;112986;1189;60271;-78
2021/10/20 04:39:53;;;;;;;;;;;;;;;11.26;88.32;99132.66;113019;1189;58972;-79
2021/10/20 04:42:20;;;;;;;5.90;4.90;;;;;;;11.31;88.45;99127.86;112847;1174;63525;-79
2021/10/20 04:44:47;;;;;;;6.20;5.60;;;;;;;11.40;88.57;99124.73;112998;1190;60217;-78
2021/10/20 04:47:14;;;;;;;5.90;5.20;;;;;;;11.51;88.63;99120.43;112880;1190;64037;-79
2021/10/20 04:49:42;;;;;;;6.60;5.00;;;;;;;11.63;88.66;99112.84;113014;1189;60241;-78
2021/10/20 04:52:09;;;;;;;5.70;4.90;;;;;;;11.76;88.57;99108.34;112947;1189;60063;-78
2021/10/20 04:54:37;;;;;;;7.10;4.70;;;;;;;11.88;88.46;99104.77;113001;1189;63560;-79
2021/10/20 04:57:03;;;;;;;5.60;5.10;;;;;;;11.97;88.18;99102.14;112971;1190;60155;-79
2021/10/20 04:59:32;;;;;;;7.90;5.20;;;;;;;12.04;88.02;99095.43;112937;1189;65107;-79
2021/10/20 05:01:58;;;;;;;6.50;5.10;;;;;;;12.07;87.87;99097.14;112997;1189;60223;-80
2021/10/20 05:04:25;;;;;;;8.10;5.70;;;;;;;12.09;87.81;99098.05;113003;1189;60871;-80
2021/10/20 05:06:52;;;;;;;6.70;5.40;;;;;;;12.10;87.79;99091.79;113044;1190;65110;-78
2021/10/20 05:09:18;;;;;;;6.70;5.30;;;;;;;12.08;87.68;99089.93;112986;1189;60809;-81
2021/10/20 05:11:45;;;;;;;7.10;5.50;;;;;;;12.07;87.67;99092.48;113018;1189;62308;-79
2021/10/20 05:14:12;;;;;;;7.40;5.50;;;;;;;12.09;87.68;99097.76;112861;1190;60130;-79
2021/10/20 05:16:38;;;;;;;6.30;5.40;;;;;;;12.10;87.64;99096.02;112752;1190;60307;-79
2021/10/20 05:19:05;;;;;;;6.40;5.70;;;;;;;12.11;87.60;99089.05;112964;1188;65032;-79
2021/10/20 05:21:32;;;;;;;6.40;5.70;;;;;;;12.12;87.54;99090.73;112964;1190;60194;-81
2021/10/20 05:23:58;;;;;;;7.90;6.90;;;;;;;12.14;87.56;99089.66;113070;1189;65016;-78
2021/10/20 05:26:25;;;;;;;8.00;6.50;;;;;;;12.16;87.57;99087.94;113011;1190;60261;-79
2021/10/20 05:28:52;;;;;;;9.20;6.80;;;;;;;12.18;87.52;99083.39;113034;1190;60231;-79
2021/10/20 05:31:19;;;;;;;8.10;6.80;;;;;;;12.19;87.44;99082.75;112839;1174;63873;-78
2021/10/20 05:33:45;;;;;;;10.60;8.70;;;;;;;12.22;87.41;99080.43;112891;1189;60188;-80
2021/10/20 05:36:12;;;;;;;9.00;8.10;;;;;;;12.24;87.44;99075.96;112889;1190;60341;-78
2021/10/20 05:38:38;;;;;;;7.10;6.30;;;;;;;12.27;87.28;99075.17;112985;1189;60306;-80
2021/10/20 05:41:06;;;;;;;7.10;5.80;;;;;;;12.31;87.30;99075.46;113022;1190;60238;-79
2021/10/20 05:43:33;;;;;;;8.00;5.30;;;;;;;12.36;87.31;99073.35;113018;1188;66149;-79
2021/10/20 05:46:00;;;;;;;7.10;4.60;;;;;;;12.43;87.24;99069.44;112873;1190;60100;-79
2021/10/20 05:48:26;;;;;;;6.20;4.90;;;;;;;12.52;87.16;99074.65;112957;1190;60255;-78
2021/10/20 05:50:53;;;;;;;7.20;4.60;;;;;;;12.62;86.97;99080.85;112966;1189;60209;-79
2021/10/20 05:53:20;;;;;;;5.10;4.60;;;;;;;12.71;86.89;99073.59;112947;1189;60211;-79
2021/10/20 05:55:47;;;;;;;5.40;4.90;;;;;;;12.78;86.85;99073.82;112979;1189;60243;-78
2021/10/20 05:58:13;;;;;;;10.70;4.90;;;;;;;12.83;86.73;99067.87;112880;1189;60342;-79
2021/10/20 06:00:40;;;;;;;6.20;4.50;;;;;;;12.91;86.66;99067.45;112995;1190;63691;-78
2021/10/20 06:03:06;;;;;;;5.90;4.30;;;;;;;12.98;86.55;99070.85;113000;1189;60230;-78
2021/10/20 06:05:33;;;;;;;5.30;4.80;;;;;;;13.04;86.33;99070.38;112889;1190;60338;-79
2021/10/20 06:07:59;;;;;;;5.70;5.10;;;;;;;13.12;86.37;99069.98;112873;1190;65127;-79
2021/10/20 06:10:26;;;;;;;5.70;4.40;;;;;;;13.20;86.17;99066.36;112997;1190;60239;-79
2021/10/20 06:12:52;;;;;;;6.50;5.20;;;;;;;13.26;86.14;99059.84;112971;1189;64657;-80
2021/10/20 06:15:23;;;;;;;6.70;5.80;;;;;;;13.31;85.95;99057.84;112979;1189;60162;-79
2021/10/20 06:17:50;;;;;;;7.50;5.90;;;;;;;13.36;85.93;99055.66;112978;1190;60111;-79
2021/10/20 06:20:17;;;;;;;5.90;5.40;;;;;;;13.40;85.86;99049.83;113009;1189;63878;-79
2021/10/20 06:22:44;;;;;;;5.60;5.10;;;;;;;13.42;85.84;99044.84;112874;1189;68775;-79
2021/10/20 06:25:12;;;;;;;8.10;5.40;;;;;;;13.47;85.69;99045.89;112848;1189;63952;-79
2021/10/20 06:27:40;;;;;;;8.80;6.40;;;;;;;13.51;85.65;99041.27;112986;1188;60219;-78
2021/10/20 06:30:07;;;;;;;6.50;5.80;;;;;;;13.55;85.62;99041.69;112985;1188;60156;-79
2021/10/20 06:32:34;;;;;;;8.30;6.80;;;;;;;13.59;85.64;99038.65;112878;1190;65006;-79
2021/10/20 06:35:01;;;;;;;8.30;6.90;;;;;;;13.65;85.53;99034.89;112949;1189;60925;-79
2021/10/20 06:37:30;;;;;;;8.00;6.00;;;;;;;13.70;85.58;99038.24;112918;1189;65106;-79
2021/10/20 06:40:00;;;;;;;8.40;6.70;;;;;;;13.75;85.59;99040.87;112915;1189;60236;-79
2021/10/20 06:42:28;;;;;;;9.90;6.80;;;;;;;13.80;85.60;99047.73;112885;1189;60153;-79
2021/10/20 06:44:56;;;;;;;10.20;6.90;;;;;;;13.87;85.48;99051.67;112947;1189;65228;-79
2021/10/20 06:47:25;;;;;;;7.50;6.20;;;;;;;13.94;85.39;99049.85;113009;1190;60242;-79
2021/10/20 06:49:52;;;;;;;7.00;6.00;;;;;;;14.03;85.32;99048.27;112875;1190;62474;-77
2021/10/20 06:52:21;;;;;;;9.10;7.00;;;;;;;14.11;85.16;99050.98;113147;1189;60255;-93
2021/10/20 06:54:47;;;;;;;10.60;8.10;;;;;;;14.21;85.12;99050.88;114251;1179;60336;-93
2021/10/20 06:57:14;;;;;;;9.70;7.20;;;;;;;14.32;85.05;99047.85;112813;1191;65351;-91
2021/10/20 06:59:42;;;;;;;7.80;5.20;;;;;;;14.43;84.79;99045.70;113004;1190;60211;-93
2021/10/20 07:02:09;;;;;;;7.90;6.10;;;;;;;14.54;84.54;99043.60;113201;1192;63652;-91
2021/10/20 07:04:37;;;;;;;8.60;5.70;;;;;;;14.65;84.28;99043.40;113587;1171;60200;-92
2021/10/20 07:07:06;;;;;;;9.20;5.70;;;;;;;14.77;84.02;99046.56;112924;1190;60566;-88
2021/10/20 07:09:32;;;;;;;7.30;5.80;;;;;;;14.85;83.62;99044.58;113127;1189;65200;-88
2021/10/20 07:12:00;;;;;;;6.60;5.70;;;;;;;14.95;83.53;99048.98;113030;1190;60719;-87
2021/10/20 07:14:26;;;;;;;7.10;5.70;;;;;;;15.03;83.28;99047.25;112911;1189;62609;-88
2021/10/20 07:16:57;;;;;;;6.10;5.30;;;;;;;15.09;83.08;99047.95;112957;1190;60175;-89
2021/10/20 07:19:25;;;;;;;7.70;5.50;;;;;;;15.16;82.71;99046.48;113023;1190;60763;-89
2021/10/20 07:21:51;;;;;;;8.30;6.10;;;;;;;15.21;82.65;99045.46;112956;1190;63847;-88
2021/10/20 07:24:18;;;;;;;5.90;5.30;;;;;;;15.27;82.38;99045.00;112853;1190;60315;-87
2021/10/20 07:26:45;;;;;;;5.60;4.60;;;;;;;15.32;82.22;99041.89;113023;1190;63662;-87
2021/10/20 07:29:11;;;;;;;6.20;4.40;;;;;;;15.39;81.91;99042.69;112805;1190;60220;-87
2021/10/20 07:31:38;;;;;;;10.80;5.10;;;;;;;15.49;81.86;99040.80;113043;1190;60341;-81
2021/10/20 07:34:04;;;;;;;7.90;4.20;;;;;;;15.59;81.33;99039.20;112965;1190;60242;-80
2021/10/20 07:36:31;;;;;;;6.10;5.10;;;;;;;15.70;81.12;99040.55;112791;1190;60181;-81
2021/10/20 07:38:57;;;;;;;9.80;4.90;;;;;;;15.85;81.10;99041.95;112961;1190;60169;-81
2021/10/20 07:41:24;;;;;;;6.30;4.60;;;;;;;16.00;80.82;99039.73;112917;1190;60249;-81
2021/10/20 07:43:50;;;;;;;5.70;4.30;;;;;;;16.14;80.60;99037.39;112912;1190;60130;-80
2021/10/20 07:46:17;;;;;;;7.40;4.90;;;;;;;16.29;80.48;99038.05;112859;1190;65471;-81
2021/10/20 07:48:43;;;;;;;5.10;4.60;;;;;;;16.42;80.22;99039.20;112879;1190;60178;-81
2021/10/20 07:51:10;;;;;;;6.20;4.40;;;;;;;16.55;79.90;99036.78;112836;1190;60140;-79
2021/10/20 07:53:36;;;;;;;9.70;5.30;;;;;;;16.66;79.71;99035.05;112869;1192;60417;-79
2021/10/20 07:56:03;;;;;;;5.80;5.10;;;;;;;16.75;79.26;99035.11;112941;1190;60156;-80
2021/10/20 07:58:29;;;;;;;8.10;4.80;;;;;;;16.83;79.15;99036.08;112817;1190;65232;-79
2021/10/20 08:00:56;;;;;;;6.40;4.30;;;;;;;16.92;78.86;99032.36;112786;1192;60162;-80
2021/10/20 08:03:23;;;;;;;5.50;3.90;;;;;;;16.99;78.38;99028.15;112841;1190;60166;-78
2021/10/20 08:05:50;;;;;;;6.10;4.60;;;;;;;17.09;78.31;99026.98;112754;1191;60259;-82
2021/10/20 08:08:16;;;;;;;7.20;5.20;;;;;;;17.23;78.38;99024.59;112896;1190;60183;-79
2021/10/20 08:10:43;;;;;;;7.30;5.00;;;;;;;17.36;78.08;99018.84;112846;1190;64852;-79
2021/10/20 08:13:09;;;;;;;6.40;5.80;;;;;;;17.46;77.71;99017.36;112775;1190;60961;-80
2021/10/20 08:15:38;;;;;;;8.50;4.80;;;;;;;17.54;77.43;99014.45;112872;1190;63723;-80
2021/10/20 08:18:09;;;;;;;6.60;4.50;;;;;;;17.62;77.24;99014.23;112782;1190;60252;-79
2021/10/20 08:20:37;;;;;;;9.40;5.30;;;;;;;17.69;76.86;99015.60;112848;1190;60198;-81
2021/10/20 08:23:06;;;;;;;10.60;5.50;;;;;;;17.75;76.64;99011.38;112756;1192;66003;-81
2021/10/20 08:25:35;;;;;;;6.30;5.00;;;;;;;17.80;76.38;99008.77;112833;1190;60162;-80
2021/10/20 08:28:05;;;;;;;;;;;;;;;17.84;76.21;99007.48;112846;1190;62460;-80
2021/10/20 08:30:34;;;;;;;6.30;4.70;;;;;;;17.91;76.46;99005.89;112818;1193;60563;-80
2021/10/20 08:33:01;;;;;;;6.40;4.80;;;;;;;17.99;75.79;99000.31;112920;1190;60278;-80
2021/10/20 08:35:27;;;;;;;5.00;4.50;;;;;;;18.04;75.47;98998.34;112784;1192;65091;-80
2021/10/20 08:37:56;;;;;;;5.60;4.40;;;;;;;18.08;74.89;98996.86;112812;1190;60255;-80
2021/10/20 08:40:29;;;;;;;7.60;5.00;;;;;;;18.12;74.77;98994.68;112731;1190;62791;-80
2021/10/20 08:42:57;;;;;;;9.40;6.20;;;;;;;18.16;74.38;98989.97;112750;1190;60165;-80
2021/10/20 08:45:24;;;;;;;8.30;5.10;;;;;;;18.20;74.16;98988.37;112460;1193;60232;-80
2021/10/20 08:47:50;;;;;;;6.00;4.20;;;;;;;18.25;74.02;98991.83;112841;1190;65205;-80
2021/10/20 08:50:23;;;;;;;7.60;4.50;;;;;;;18.29;73.79;98988.70;112748;1190;60335;-80
2021/10/20 08:52:50;;;;;;;8.40;4.50;;;;;;;18.36;73.69;98985.54;112843;1190;62356;-80
2021/10/20 08:55:18;;;;;;;5.20;3.90;;;;;;;18.42;73.62;98980.95;112837;1190;60278;-80
2021/10/20 08:57:46;;;;;;;5.60;4.50;;;;;;;18.47;73.31;98977.08;112743;1190;60851;-80
2021/10/20 09:00:14;;;;;;;5.40;4.70;;;;;;;18.48;73.16;98979.59;112772;1190;66007;-80
2021/10/20 09:02:41;;;;;;;6.60;4.10;;;;;;;18.51;72.87;98971.42;112849;1191;60243;-81
2021/10/20 09:05:10;;;;;;;5.90;4.30;;;;;;;18.53;72.44;98965.44;112711;1192;62923;-80
2021/10/20 09:07:44;;;;;;;6.90;4.80;;;;;;;18.51;72.36;98975.67;112832;1193;60288;-80
2021/10/20 09:10:12;;;;;;;5.90;4.90;;;;;;;18.49;72.46;98980.58;112867;1193;60253;-80
2021/10/20 09:12:40;;;;;;;5.20;4.60;;;;;;;18.48;72.23;98983.46;112778;1193;66139;-80
2021/10/20 09:15:19;;;;;;;5.00;4.50;;;;;;;18.45;72.35;98983.53;112809;1192;60256;-80
2021/10/20 09:17:59;;;;;;;6.20;5.10;;;;;;;18.40;72.12;98977.89;112843;1193;63623;-79
2021/10/20 09:20:25;;;;;;;6.40;4.60;;;;;;;18.35;72.36;98972.65;112791;1190;60247;-80
2021/10/20 09:23:04;;;;;;;7.00;4.60;;;;;;;18.30;72.37;98964.36;112901;1192;60186;-80
2021/10/20 09:25:42;;;;;;;6.40;4.30;;;;;;;18.21;72.19;98958.34;112761;1193;65003;-80
2021/10/20 09:28:19;;;;;;;6.00;3.80;;;;;;;18.14;72.17;98956.73;112830;1183;60965;-80
2021/10/20 09:30:47;;;;;;;9.20;4.50;;;;;;;18.09;71.84;98962.28;112782;1191;63686;-79
2021/10/20 09:33:14;;;;;;;5.50;3.80;;;;;;;18.06;71.77;98962.20;112662;1190;60196;-79
2021/10/20 09:35:41;;;;;;;6.10;4.40;;;;;;;18.09;71.75;98960.29;112775;1190;60181;-80
2021/10/20 09:38:10;;;;;;;5.70;4.70;;;;;;;18.14;71.72;98957.98;112877;1192;65168;-79
2021/10/20 09:40:45;;;;;;;6.10;4.60;;;;;;;18.17;71.11;98954.79;112819;1191;60140;-79
2021/10/20 09:43:14;;;;;;;6.30;4.60;;;;;;;18.25;71.16;98953.83;112787;1192;64014;-79
2021/10/20 09:45:43;;;;;;;6.40;5.00;;;;;;;18.35;70.79;98945.46;112865;1183;60329;-79
2021/10/20 09:48:13;;;;;;;13.60;10.30;;;;;;;18.43;70.54;98942.52;112822;1190;60102;-79
2021/10/20 09:51:04;;;;;;;9.00;5.80;;;;;;;18.50;70.22;98934.63;112881;1193;66162;-80
2021/10/20 09:53:33;;;;;;;7.50;4.60;;;;;;;18.59;69.41;98927.57;112892;1192;60195;-79
2021/10/20 09:56:03;;;;;;;5.70;4.60;;;;;;;18.67;69.35;98927.84;112880;1192;63737;-79
2021/10/20 09:58:33;;;;;;;6.90;4.50;;;;;;;18.74;69.38;98925.75;112807;1192;60253;-79
2021/10/20 10:00:59;;;;;;;5.20;4.70;;;;;;;18.81;69.57;98926.40;112711;1190;60240;-80
2021/10/20 10:03:26;;;;;;;5.00;4.00;;;;;;;18.96;69.46;98924.02;112693;1192;64895;-80
2021/10/20 10:05:53;;;;;;;6.90;4.50;;;;;;;19.06;68.93;98921.71;112684;1190;60630;-79
2021/10/20 10:08:19;;;;;;;4.80;3.40;;;;;;;19.02;68.62;98920.20;112657;1190;64724;-79
2021/10/20 10:10:46;;;;;;;5.50;4.40;;;;;;;18.96;67.91;98921.50;112702;1190;60668;-79
2021/10/20 10:13:19;;;;;;;7.90;4.80;;;;;;;19.05;67.53;98915.67;112689;1190;60216;-79
2021/10/20 10:15:46;;;;;;;5.50;4.80;;;;;;;19.18;67.57;98913.31;112691;1190;65140;-80
2021/10/20 10:18:14;;;;;;;4.80;4.00;;;;;;;19.28;67.15;98908.08;112749;1190;60688;-80
2021/10/20 10:20:43;;;;;;;6.70;4.90;;;;;;;19.39;66.63;98898.71;112766;1190;63830;-80
2021/10/20 10:23:24;;;;;;;;;;;;;;;19.49;66.13;98891.52;112747;1190;60858;-80
2021/10/20 10:26:03;;;;;;;6.10;4.90;;;;;;;19.59;66.04;98887.40;112866;1190;60214;-81
2021/10/20 10:28:32;;;;;;;7.50;4.90;;;;;;;19.68;65.52;98885.02;112769;1190;66273;-82
2021/10/20 10:31:07;;;;;;;6.60;5.90;;;;;;;19.82;65.85;98881.39;113249;1190;60242;-87
2021/10/20 10:40:01;;;;;;;5.80;3.90;;;;;;;20.18;64.26;98874.61;115635;1171;59141;-83
2021/10/20 10:42:34;;;;;;;4.20;3.80;;;;;;;20.28;63.43;98871.65;113077;1190;64824;-89
2021/10/20 10:45:13;;;;;;;4.20;3.40;;;;;;;20.37;63.00;98869.98;112914;1192;60965;-90
2021/10/20 10:48:10;;;;;;;6.20;3.40;;;;;;;20.44;61.85;98861.14;112899;1193;62967;-80
2021/10/20 10:50:49;;;;;;;5.60;3.90;;;;;;;20.49;61.53;98858.05;112832;1191;60197;-80
2021/10/20 10:53:39;;;;;;;4.70;3.30;;;;;;;20.52;61.09;98856.56;112949;1192;60345;-80
2021/10/20 10:56:14;;;;;;;6.00;3.50;;;;;;;20.55;60.63;98848.66;112855;1192;63618;-80
2021/10/20 10:59:03;;;;;;;6.40;3.90;;;;;;;20.60;60.95;98842.17;112867;1193;60258;-80
2021/10/20 11:01:49;;;;;;;4.20;3.10;;;;;;;20.66;60.11;98833.20;112826;1193;64648;-80
2021/10/20 11:04:22;;;;;;;5.40;3.50;;;;;;;20.67;59.15;98827.92;112585;1192;60226;-79
2021/10/20 11:06:51;;;;;;;3.50;3.20;;;;;;;20.65;58.97;98823.11;112696;1192;60268;-80
2021/10/20 11:09:21;;;;;;;4.70;3.40;;;;;;;20.61;59.33;98823.70;112743;1192;65092;-80
2021/10/20 11:11:49;;;;;;;5.70;3.40;;;;;;;20.53;59.36;98815.88;112754;1193;61065;-80
2021/10/20 11:14:19;;;;;;;4.10;3.70;;;;;;;20.47;59.25;98813.45;112773;1192;64003;-80
2021/10/20 11:16:50;;;;;;;;;;;;;;;20.47;58.72;98807.36;112772;1192;60230;-80
2021/10/20 11:19:21;;;;;;;3.00;2.80;;;;;;;20.44;58.66;98803.71;112704;1192;60236;-80
2021/10/20 11:21:48;;;;;;;5.40;3.80;;;;;;;20.50;58.77;98797.41;112724;1192;65046;-80
2021/10/20 11:24:15;;;;;;;3.90;3.50;;;;;;;20.56;58.31;98793.30;112773;1191;60698;-80
2021/10/20 11:26:47;;;;;;;6.00;3.80;;;;;;;20.64;58.56;98784.16;112699;1194;62502;-80
2021/10/20 11:29:14;;;;;;;4.00;3.50;;;;;;;20.75;58.80;98779.38;112758;1192;60198;-80
2021/10/20 11:31:57;;;;;;;4.60;4.00;;;;;;;20.83;58.35;98776.98;112707;1193;60235;-80
2021/10/20 11:34:26;;;;;;;5.30;3.80;;;;;;;20.87;58.08;98767.65;112565;1193;66260;-80
2021/10/20 11:36:54;;;;;;;5.10;4.60;;;;;;;20.89;58.25;98757.81;112750;1192;61129;-79